sensor_id;sensor_type;location;lat;lon;timestamp;pressure;altitude;pressure_sealevel;temperature;humidity
54816;BME280;40715;55.752;37.884;2023-02-16T00:00:25;99820.88;;;29.90;21.15
54816;BME280;40715;55.752;37.884;2023-02-16T00:02:53;99822.13;;;29.96;21.55
54816;BME280;40715;55.752;37.884;2023-02-16T00:05:24;99822.44;;;29.93;20.85
54816;BME280;40715;55.752;37.884;2023-02-16T00:07:52;99817.84;;;29.93;21.27
54816;BME280;40715;55.752;37.884;2023-02-16T00:10:19;99825.59;;;29.88;20.88
54816;BME280;40715;55.752;37.884;2023-02-16T00:12:47;99818.31;;;29.89;20.99
54816;BME280;40715;55.752;37.884;2023-02-16T00:15:33;99807.91;;;29.84;21.30
54816;BME280;40715;55.752;37.884;2023-02-16T00:18:01;99802.59;;;29.83;21.34
54816;BME280;40715;55.752;37.884;2023-02-16T00:20:28;99816.31;;;29.81;20.98
54816;BME280;40715;55.752;37.884;2023-02-16T00:22:56;99819.78;;;29.83;21.08
54816;BME280;40715;55.752;37.884;2023-02-16T00:25:23;99813.25;;;29.76;21.00
54816;BME280;40715;55.752;37.884;2023-02-16T00:27:50;99818.66;;;29.76;21.14
54816;BME280;40715;55.752;37.884;2023-02-16T00:30:19;99814.53;;;29.72;21.28
54816;BME280;40715;55.752;37.884;2023-02-16T00:32:47;99811.84;;;29.72;21.04
54816;BME280;40715;55.752;37.884;2023-02-16T00:35:18;99821.97;;;29.70;21.11
54816;BME280;40715;55.752;37.884;2023-02-16T00:37:46;99811.28;;;29.68;20.93
54816;BME280;40715;55.752;37.884;2023-02-16T00:40:14;99816.31;;;29.63;21.46
54816;BME280;40715;55.752;37.884;2023-02-16T00:42:43;99827.88;;;29.65;21.02
54816;BME280;40715;55.752;37.884;2023-02-16T00:45:15;99813.88;;;29.60;21.37
54816;BME280;40715;55.752;37.884;2023-02-16T00:47:44;99818.16;;;29.63;21.16
54816;BME280;40715;55.752;37.884;2023-02-16T00:50:25;99798.84;;;29.66;20.95
54816;BME280;40715;55.752;37.884;2023-02-16T00:52:53;99807.31;;;29.63;21.09
54816;BME280;40715;55.752;37.884;2023-02-16T00:55:22;99806.94;;;29.57;21.27
54816;BME280;40715;55.752;37.884;2023-02-16T00:57:50;99804.75;;;29.61;21.10
54816;BME280;40715;55.752;37.884;2023-02-16T01:00:23;99810.03;;;29.63;21.49
54816;BME280;40715;55.752;37.884;2023-02-16T01:02:52;99810.75;;;29.65;21.02
54816;BME280;40715;55.752;37.884;2023-02-16T01:05:20;99806.72;;;29.69;21.32
54816;BME280;40715;55.752;37.884;2023-02-16T01:07:47;99815.06;;;29.75;20.52
54816;BME280;40715;55.752;37.884;2023-02-16T01:10:33;99807.66;;;29.77;21.23
54816;BME280;40715;55.752;37.884;2023-02-16T01:13:19;99808.97;;;29.91;20.67
54816;BME280;40715;55.752;37.884;2023-02-16T01:15:46;99815.44;;;29.90;20.93
54816;BME280;40715;55.752;37.884;2023-02-16T01:18:15;99820.00;;;29.90;21.27
54816;BME280;40715;55.752;37.884;2023-02-16T01:20:43;99820.72;;;29.92;21.18
54816;BME280;40715;55.752;37.884;2023-02-16T01:23:10;99817.13;;;29.91;21.01
54816;BME280;40715;55.752;37.884;2023-02-16T01:25:38;99825.16;;;29.93;20.72
54816;BME280;40715;55.752;37.884;2023-02-16T01:28:20;99816.75;;;30.04;20.88
54816;BME280;40715;55.752;37.884;2023-02-16T01:30:48;99816.69;;;29.96;19.94
54816;BME280;40715;55.752;37.884;2023-02-16T01:33:15;99817.53;;;29.97;20.36
54816;BME280;40715;55.752;37.884;2023-02-16T01:35:43;99827.00;;;29.92;21.21
54816;BME280;40715;55.752;37.884;2023-02-16T01:38:22;99817.69;;;29.95;21.35
54816;BME280;40715;55.752;37.884;2023-02-16T01:41:12;99824.13;;;29.94;21.11
54816;BME280;40715;55.752;37.884;2023-02-16T01:46:38;99820.63;;;29.84;20.63
54816;BME280;40715;55.752;37.884;2023-02-16T01:49:17;99826.34;;;29.81;20.63
54816;BME280;40715;55.752;37.884;2023-02-16T01:51:59;99817.19;;;29.82;20.51
54816;BME280;40715;55.752;37.884;2023-02-16T01:57:48;99820.81;;;29.72;20.78
54816;BME280;40715;55.752;37.884;2023-02-16T02:02:53;99835.03;;;29.66;20.88
54816;BME280;40715;55.752;37.884;2023-02-16T02:05:26;99829.91;;;29.63;20.89
54816;BME280;40715;55.752;37.884;2023-02-16T02:11:17;99827.81;;;29.75;20.58
54816;BME280;40715;55.752;37.884;2023-02-16T02:14:05;99825.41;;;29.72;20.92
54816;BME280;40715;55.752;37.884;2023-02-16T02:16:33;99824.69;;;29.52;20.58
54816;BME280;40715;55.752;37.884;2023-02-16T02:19:00;99829.69;;;29.47;20.37
54816;BME280;40715;55.752;37.884;2023-02-16T02:28:16;99820.06;;;29.80;21.02
54816;BME280;40715;55.752;37.884;2023-02-16T02:31:00;99825.00;;;29.67;20.57
54816;BME280;40715;55.752;37.884;2023-02-16T02:42:13;99825.28;;;29.91;20.76
54816;BME280;40715;55.752;37.884;2023-02-16T02:44:48;99820.72;;;29.92;20.80
54816;BME280;40715;55.752;37.884;2023-02-16T02:47:15;99820.72;;;29.92;21.41
54816;BME280;40715;55.752;37.884;2023-02-16T02:49:53;99826.25;;;30.00;21.44
54816;BME280;40715;55.752;37.884;2023-02-16T02:52:21;99818.00;;;29.92;20.88
54816;BME280;40715;55.752;37.884;2023-02-16T02:54:48;99815.13;;;29.93;21.25
54816;BME280;40715;55.752;37.884;2023-02-16T02:57:54;99819.09;;;29.99;21.90
54816;BME280;40715;55.752;37.884;2023-02-16T03:00:43;99822.44;;;29.93;21.57
54816;BME280;40715;55.752;37.884;2023-02-16T03:03:21;99822.72;;;29.90;22.19
54816;BME280;40715;55.752;37.884;2023-02-16T03:06:33;99824.66;;;30.78;21.29
54816;BME280;40715;55.752;37.884;2023-02-16T03:08:41;99827.41;;;29.98;21.40
54816;BME280;40715;55.752;37.884;2023-02-16T03:11:20;99818.31;;;29.89;22.00
54816;BME280;40715;55.752;37.884;2023-02-16T03:16:50;99820.66;;;29.74;21.95
54816;BME280;40715;55.752;37.884;2023-02-16T03:19:39;99826.41;;;29.71;22.17
54816;BME280;40715;55.752;37.884;2023-02-16T03:22:27;99827.88;;;29.65;21.87
54816;BME280;40715;55.752;37.884;2023-02-16T03:25:14;99834.88;;;29.68;22.86
54816;BME280;40715;55.752;37.884;2023-02-16T03:28:00;99833.19;;;29.57;22.51
54816;BME280;40715;55.752;37.884;2023-02-16T03:30:48;99833.50;;;29.54;22.12
54816;BME280;40715;55.752;37.884;2023-02-16T03:33:16;99839.41;;;29.49;22.23
54816;BME280;40715;55.752;37.884;2023-02-16T03:35:44;99841.25;;;29.49;22.04
54816;BME280;40715;55.752;37.884;2023-02-16T03:38:11;99840.56;;;29.47;22.62
54816;BME280;40715;55.752;37.884;2023-02-16T03:40:40;99822.84;;;29.42;23.11
54816;BME280;40715;55.752;37.884;2023-02-16T03:43:08;99828.69;;;29.48;22.13
54816;BME280;40715;55.752;37.884;2023-02-16T03:45:37;99802.59;;;29.37;22.67
54816;BME280;40715;55.752;37.884;2023-02-16T03:48:06;99821.41;;;29.48;23.15
54816;BME280;40715;55.752;37.884;2023-02-16T03:50:33;99820.25;;;29.51;23.72
54816;BME280;40715;55.752;37.884;2023-02-16T03:53:00;99815.66;;;29.51;22.90
54816;BME280;40715;55.752;37.884;2023-02-16T03:55:42;99815.44;;;29.63;22.76
54816;BME280;40715;55.752;37.884;2023-02-16T03:58:12;99825.56;;;29.70;22.21
54816;BME280;40715;55.752;37.884;2023-02-16T04:00:39;99814.88;;;29.69;23.14
54816;BME280;40715;55.752;37.884;2023-02-16T04:03:06;99810.81;;;29.73;22.79
54816;BME280;40715;55.752;37.884;2023-02-16T04:05:35;99820.91;;;29.81;23.40
54816;BME280;40715;55.752;37.884;2023-02-16T04:08:03;99811.94;;;29.80;22.56
54816;BME280;40715;55.752;37.884;2023-02-16T04:10:30;99813.59;;;29.81;22.38
54816;BME280;40715;55.752;37.884;2023-02-16T04:12:57;99818.59;;;29.86;22.20
54816;BME280;40715;55.752;37.884;2023-02-16T04:15:26;99816.16;;;29.83;22.17
54816;BME280;40715;55.752;37.884;2023-02-16T04:17:55;99821.47;;;29.84;21.81
54816;BME280;40715;55.752;37.884;2023-02-16T04:20:25;99815.78;;;29.77;21.89
54816;BME280;40715;55.752;37.884;2023-02-16T04:22:52;99816.78;;;29.76;22.74
54816;BME280;40715;55.752;37.884;2023-02-16T04:25:19;99810.69;;;29.74;22.24
54816;BME280;40715;55.752;37.884;2023-02-16T04:27:47;99803.69;;;29.72;23.12
54816;BME280;40715;55.752;37.884;2023-02-16T04:30:23;99800.97;;;29.72;22.79
54816;BME280;40715;55.752;37.884;2023-02-16T04:32:50;99805.94;;;29.76;22.08
54816;BME280;40715;55.752;37.884;2023-02-16T04:35:18;99818.00;;;29.64;22.86
54816;BME280;40715;55.752;37.884;2023-02-16T04:37:45;99811.75;;;29.64;22.78
54816;BME280;40715;55.752;37.884;2023-02-16T04:40:14;99809.66;;;29.57;22.77
54816;BME280;40715;55.752;37.884;2023-02-16T04:42:42;99811.63;;;29.55;23.55
54816;BME280;40715;55.752;37.884;2023-02-16T04:45:10;99815.66;;;29.51;23.92
54816;BME280;40715;55.752;37.884;2023-02-16T04:47:37;99829.81;;;29.55;24.27
54816;BME280;40715;55.752;37.884;2023-02-16T04:50:05;99824.84;;;29.50;24.40
54816;BME280;40715;55.752;37.884;2023-02-16T04:52:33;99820.25;;;29.51;24.70
54816;BME280;40715;55.752;37.884;2023-02-16T04:54:59;99819.41;;;29.50;24.29
54816;BME280;40715;55.752;37.884;2023-02-16T04:57:28;99818.84;;;29.47;24.36
54816;BME280;40715;55.752;37.884;2023-02-16T04:59:55;99816.75;;;29.40;24.70
54816;BME280;40715;55.752;37.884;2023-02-16T05:02:22;99821.28;;;29.40;25.05
54816;BME280;40715;55.752;37.884;2023-02-16T05:04:49;99823.47;;;29.36;25.38
54816;BME280;40715;55.752;37.884;2023-02-16T05:07:16;99816.63;;;29.32;25.43
54816;BME280;40715;55.752;37.884;2023-02-16T05:09:42;99815.50;;;29.35;25.14
54816;BME280;40715;55.752;37.884;2023-02-16T05:12:10;99820.03;;;29.34;24.46
54816;BME280;40715;55.752;37.884;2023-02-16T05:14:55;99828.28;;;29.42;24.23
54816;BME280;40715;55.752;37.884;2023-02-16T05:17:24;99815.88;;;29.40;24.75
54816;BME280;40715;55.752;37.884;2023-02-16T05:19:57;99825.41;;;29.44;24.89
54816;BME280;40715;55.752;37.884;2023-02-16T05:22:25;99824.13;;;29.48;24.42
54816;BME280;40715;55.752;37.884;2023-02-16T05:24:54;99819.53;;;29.49;24.13
54816;BME280;40715;55.752;37.884;2023-02-16T05:27:24;99833.34;;;29.55;23.77
54816;BME280;40715;55.752;37.884;2023-02-16T05:29:52;99831.91;;;29.61;23.69
54816;BME280;40715;55.752;37.884;2023-02-16T05:32:19;99823.91;;;29.59;23.53
54816;BME280;40715;55.752;37.884;2023-02-16T05:34:46;99833.63;;;29.62;23.99
54816;BME280;40715;55.752;37.884;2023-02-16T05:37:15;99833.31;;;29.65;24.17
54816;BME280;40715;55.752;37.884;2023-02-16T05:39:43;99837.59;;;29.68;24.69
54816;BME280;40715;55.752;37.884;2023-02-16T05:42:11;99828.44;;;29.69;24.57
54816;BME280;40715;55.752;37.884;2023-02-16T05:44:38;99818.47;;;29.59;24.68
54816;BME280;40715;55.752;37.884;2023-02-16T05:47:05;99833.31;;;29.65;24.53
54816;BME280;40715;55.752;37.884;2023-02-16T05:49:32;99835.19;;;29.65;24.76
54816;BME280;40715;55.752;37.884;2023-02-16T05:51:59;99831.59;;;29.64;24.51
54816;BME280;40715;55.752;37.884;2023-02-16T05:54:26;99819.03;;;29.63;24.21
54816;BME280;40715;55.752;37.884;2023-02-16T05:56:54;99823.75;;;29.61;23.54
54816;BME280;40715;55.752;37.884;2023-02-16T05:59:21;99823.59;;;29.63;23.41
54816;BME280;40715;55.752;37.884;2023-02-16T06:01:48;99811.19;;;29.60;22.68
54816;BME280;40715;55.752;37.884;2023-02-16T06:04:19;99826.94;;;29.56;23.96
54816;BME280;40715;55.752;37.884;2023-02-16T06:06:46;99818.22;;;29.53;24.13
54816;BME280;40715;55.752;37.884;2023-02-16T06:09:13;99813.09;;;29.50;24.29
54816;BME280;40715;55.752;37.884;2023-02-16T06:11:41;99821.56;;;29.47;24.31
54816;BME280;40715;55.752;37.884;2023-02-16T06:14:16;99818.84;;;29.47;24.09
54816;BME280;40715;55.752;37.884;2023-02-16T06:16:46;99816.69;;;29.50;24.04
54816;BME280;40715;55.752;37.884;2023-02-16T06:19:15;99824.56;;;29.43;23.06
54816;BME280;40715;55.752;37.884;2023-02-16T06:21:43;99829.13;;;29.43;23.37
54816;BME280;40715;55.752;37.884;2023-02-16T06:24:11;99837.59;;;29.40;23.61
54816;BME280;40715;55.752;37.884;2023-02-16T06:26:39;99836.28;;;29.44;23.29
54816;BME280;40715;55.752;37.884;2023-02-16T06:29:06;99826.41;;;29.43;23.27
54816;BME280;40715;55.752;37.884;2023-02-16T06:31:33;99828.53;;;29.49;23.55
54816;BME280;40715;55.752;37.884;2023-02-16T06:34:02;99823.81;;;29.51;23.43
54816;BME280;40715;55.752;37.884;2023-02-16T06:36:30;99820.78;;;29.54;22.77
54816;BME280;40715;55.752;37.884;2023-02-16T06:38:57;99830.91;;;29.62;22.42
54816;BME280;40715;55.752;37.884;2023-02-16T06:41:24;99827.19;;;29.63;22.81
54816;BME280;40715;55.752;37.884;2023-02-16T06:44:02;99815.13;;;29.66;22.40
54816;BME280;40715;55.752;37.884;2023-02-16T06:46:29;99818.25;;;29.71;22.39
54816;BME280;40715;55.752;37.884;2023-02-16T06:48:57;99813.84;;;29.70;22.34
54816;BME280;40715;55.752;37.884;2023-02-16T06:51:24;99819.41;;;29.68;22.57
54816;BME280;40715;55.752;37.884;2023-02-16T06:53:51;99819.09;;;29.71;22.93
54816;BME280;40715;55.752;37.884;2023-02-16T06:56:18;99818.81;;;29.74;23.37
54816;BME280;40715;55.752;37.884;2023-02-16T06:58:45;99825.41;;;29.72;23.09
54816;BME280;40715;55.752;37.884;2023-02-16T07:01:12;99817.25;;;29.72;22.42
54816;BME280;40715;55.752;37.884;2023-02-16T07:03:39;99816.69;;;29.68;22.51
54816;BME280;40715;55.752;37.884;2023-02-16T07:06:06;99815.28;;;29.64;22.74
54816;BME280;40715;55.752;37.884;2023-02-16T07:08:33;99824.47;;;29.63;23.37
54816;BME280;40715;55.752;37.884;2023-02-16T07:11:01;99816.16;;;29.65;23.23
54816;BME280;40715;55.752;37.884;2023-02-16T07:13:28;99812.88;;;29.61;22.73
54816;BME280;40715;55.752;37.884;2023-02-16T07:15:55;99814.75;;;29.60;22.86
54816;BME280;40715;55.752;37.884;2023-02-16T07:18:22;99804.22;;;29.57;23.34
54816;BME280;40715;55.752;37.884;2023-02-16T07:20:49;99808.78;;;29.57;23.48
54816;BME280;40715;55.752;37.884;2023-02-16T07:23:16;99814.34;;;29.55;23.71
54816;BME280;40715;55.752;37.884;2023-02-16T07:25:42;99814.50;;;29.54;23.51
54816;BME280;40715;55.752;37.884;2023-02-16T07:28:09;99804.50;;;29.54;23.51
54816;BME280;40715;55.752;37.884;2023-02-16T07:30:36;99811.94;;;29.52;23.65
54816;BME280;40715;55.752;37.884;2023-02-16T07:33:03;99813.97;;;29.50;23.76
54816;BME280;40715;55.752;37.884;2023-02-16T07:35:35;99809.38;;;29.51;22.37
54816;BME280;40715;55.752;37.884;2023-02-16T07:38:04;99812.09;;;29.51;22.04
54816;BME280;40715;55.752;37.884;2023-02-16T07:40:31;99812.09;;;29.51;22.69
54816;BME280;40715;55.752;37.884;2023-02-16T07:43:03;99812.63;;;29.54;23.07
54816;BME280;40715;55.752;37.884;2023-02-16T07:45:30;99806.47;;;29.62;22.61
54816;BME280;40715;55.752;37.884;2023-02-16T07:48:01;99811.28;;;29.68;22.60
54816;BME280;40715;55.752;37.884;2023-02-16T07:50:28;99805.00;;;29.68;22.77
54816;BME280;40715;55.752;37.884;2023-02-16T07:52:55;99811.22;;;29.78;22.54
54816;BME280;40715;55.752;37.884;2023-02-16T07:55:22;99809.06;;;29.82;21.70
54816;BME280;40715;55.752;37.884;2023-02-16T07:57:49;99808.47;;;29.88;22.20
54816;BME280;40715;55.752;37.884;2023-02-16T08:00:20;99807.31;;;29.90;21.33
54816;BME280;40715;55.752;37.884;2023-02-16T08:02:48;99811.84;;;29.90;21.33
54816;BME280;40715;55.752;37.884;2023-02-16T08:05:15;99806.44;;;29.90;21.38
54816;BME280;40715;55.752;37.884;2023-02-16T08:07:42;99811.56;;;29.93;20.89
54816;BME280;40715;55.752;37.884;2023-02-16T08:10:12;99808.84;;;29.93;21.07
54816;BME280;40715;55.752;37.884;2023-02-16T08:12:39;99803.56;;;29.91;21.01
54816;BME280;40715;55.752;37.884;2023-02-16T08:15:07;99810.00;;;29.90;20.92
54816;BME280;40715;55.752;37.884;2023-02-16T08:17:34;99809.13;;;29.90;21.49
54816;BME280;40715;55.752;37.884;2023-02-16T08:20:03;99810.69;;;29.92;21.51
54816;BME280;40715;55.752;37.884;2023-02-16T08:22:30;99804.78;;;29.97;21.46
54816;BME280;40715;55.752;37.884;2023-02-16T08:24:58;99806.25;;;29.91;21.60
54816;BME280;40715;55.752;37.884;2023-02-16T08:27:25;99805.25;;;29.92;21.92
54816;BME280;40715;55.752;37.884;2023-02-16T08:29:52;99814.41;;;29.91;21.40
54816;BME280;40715;55.752;37.884;2023-02-16T08:32:19;99799.47;;;29.87;21.26
54816;BME280;40715;55.752;37.884;2023-02-16T08:34:46;99805.75;;;29.88;21.80
54816;BME280;40715;55.752;37.884;2023-02-16T08:37:13;99801.00;;;29.90;20.18
54816;BME280;40715;55.752;37.884;2023-02-16T08:39:40;99806.44;;;29.90;20.82
54816;BME280;40715;55.752;37.884;2023-02-16T08:42:10;99803.34;;;29.85;21.38
54816;BME280;40715;55.752;37.884;2023-02-16T08:44:39;99801.06;;;29.80;21.44
54816;BME280;40715;55.752;37.884;2023-02-16T08:47:07;99803.78;;;29.80;20.72
54816;BME280;40715;55.752;37.884;2023-02-16T08:49:36;99790.97;;;29.72;20.59
54816;BME280;40715;55.752;37.884;2023-02-16T08:52:05;99795.63;;;29.80;20.92
54816;BME280;40715;55.752;37.884;2023-02-16T08:54:32;99798.47;;;29.78;21.16
54816;BME280;40715;55.752;37.884;2023-02-16T08:56:59;99803.22;;;29.76;20.83
54816;BME280;40715;55.752;37.884;2023-02-16T08:59:28;99805.09;;;29.76;21.11
54816;BME280;40715;55.752;37.884;2023-02-16T09:01:59;99798.47;;;29.78;20.89
54816;BME280;40715;55.752;37.884;2023-02-16T09:04:28;99796.31;;;29.82;20.97
54816;BME280;40715;55.752;37.884;2023-02-16T09:06:56;99791.44;;;29.86;21.11
54816;BME280;40715;55.752;37.884;2023-02-16T09:09:24;99794.50;;;30.01;20.38
54816;BME280;40715;55.752;37.884;2023-02-16T09:11:52;99792.53;;;30.11;19.78
54816;BME280;40715;55.752;37.884;2023-02-16T09:14:19;99789.34;;;30.16;20.71
54816;BME280;40715;55.752;37.884;2023-02-16T09:16:48;99794.94;;;30.14;20.44
54816;BME280;40715;55.752;37.884;2023-02-16T09:19:17;99788.09;;;30.10;20.69
54816;BME280;40715;55.752;37.884;2023-02-16T09:21:45;99798.53;;;30.15;20.83
54816;BME280;40715;55.752;37.884;2023-02-16T09:24:13;99795.66;;;30.16;20.41
54816;BME280;40715;55.752;37.884;2023-02-16T09:26:41;99790.53;;;30.13;19.97
54816;BME280;40715;55.752;37.884;2023-02-16T09:29:10;99790.38;;;30.15;19.90
54816;BME280;40715;55.752;37.884;2023-02-16T09:31:39;99788.66;;;30.13;19.90
54816;BME280;40715;55.752;37.884;2023-02-16T09:34:16;99789.34;;;30.16;20.30
54816;BME280;40715;55.752;37.884;2023-02-16T09:36:44;99788.81;;;30.12;20.88
54816;BME280;40715;55.752;37.884;2023-02-16T09:39:11;99794.25;;;30.12;20.35
54816;BME280;40715;55.752;37.884;2023-02-16T09:45:05;99789.81;;;30.29;19.88
54816;BME280;40715;55.752;37.884;2023-02-16T09:47:40;99792.00;;;30.07;18.87
54816;BME280;40715;55.752;37.884;2023-02-16T09:50:20;99790.13;;;30.08;19.87
54816;BME280;40715;55.752;37.884;2023-02-16T09:53:18;99785.66;;;29.99;20.57
54816;BME280;40715;55.752;37.884;2023-02-16T09:56:03;99782.53;;;29.93;20.66
54816;BME280;40715;55.752;37.884;2023-02-16T09:58:47;99786.66;;;29.98;20.75
54816;BME280;40715;55.752;37.884;2023-02-16T10:01:18;99788.72;;;29.86;20.48
54816;BME280;40715;55.752;37.884;2023-02-16T10:04:22;99790.75;;;29.84;20.95
54816;BME280;40715;55.752;37.884;2023-02-16T10:09:28;99782.19;;;29.78;21.33
54816;BME280;40715;55.752;37.884;2023-02-16T10:12:17;99783.69;;;29.91;20.89
54816;BME280;40715;55.752;37.884;2023-02-16T10:14:52;99778.22;;;29.73;20.44
54816;BME280;40715;55.752;37.884;2023-02-16T10:20:12;99771.47;;;29.77;20.89
54816;BME280;40715;55.752;37.884;2023-02-16T10:25:18;99762.00;;;29.81;21.37
54816;BME280;40715;55.752;37.884;2023-02-16T10:27:53;99774.00;;;29.88;21.22
54816;BME280;40715;55.752;37.884;2023-02-16T10:30:24;99781.22;;;29.98;20.77
54816;BME280;40715;55.752;37.884;2023-02-16T10:33:16;99783.78;;;29.99;21.17
54816;BME280;40715;55.752;37.884;2023-02-16T10:35:45;99782.94;;;29.99;21.63
54816;BME280;40715;55.752;37.884;2023-02-16T10:41:02;99770.44;;;30.06;20.77
54816;BME280;40715;55.752;37.884;2023-02-16T10:46:21;99772.84;;;30.09;21.03
54816;BME280;40715;55.752;37.884;2023-02-16T10:48:53;99770.13;;;30.09;21.62
54816;BME280;40715;55.752;37.884;2023-02-16T10:51:23;99769.41;;;30.07;21.88
54816;BME280;40715;55.752;37.884;2023-02-16T10:54:03;99765.53;;;30.09;21.95
54816;BME280;40715;55.752;37.884;2023-02-16T10:57:05;99758.91;;;30.30;21.87
54816;BME280;40715;55.752;37.884;2023-02-16T10:59:37;99756.28;;;30.02;21.68
54816;BME280;40715;55.752;37.884;2023-02-16T11:02:37;99753.72;;;30.19;21.83
54816;BME280;40715;55.752;37.884;2023-02-16T11:05:37;99760.81;;;30.11;21.15
54816;BME280;40715;55.752;37.884;2023-02-16T11:08:06;99759.81;;;29.94;21.54
54816;BME280;40715;55.752;37.884;2023-02-16T11:10:42;99751.81;;;29.93;22.04
54816;BME280;40715;55.752;37.884;2023-02-16T11:13:25;99757.69;;;30.06;20.99
54816;BME280;40715;55.752;37.884;2023-02-16T11:15:59;99751.25;;;29.89;20.90
54816;BME280;40715;55.752;37.884;2023-02-16T11:18:36;99744.31;;;29.77;21.77
54816;BME280;40715;55.752;37.884;2023-02-16T11:21:07;99750.88;;;29.84;20.87
54816;BME280;40715;55.752;37.884;2023-02-16T11:23:39;99745.50;;;29.74;21.79
54816;BME280;40715;55.752;37.884;2023-02-16T11:28:41;99755.03;;;29.78;21.52
54816;BME280;40715;55.752;37.884;2023-02-16T11:31:11;99757.06;;;29.76;21.65
54816;BME280;40715;55.752;37.884;2023-02-16T11:33:40;99762.88;;;29.82;21.09
54816;BME280;40715;55.752;37.884;2023-02-16T11:36:19;99750.09;;;29.92;21.56
54816;BME280;40715;55.752;37.884;2023-02-16T11:39:19;99751.19;;;29.99;21.31
54816;BME280;40715;55.752;37.884;2023-02-16T11:41:58;99755.47;;;30.02;20.81
54816;BME280;40715;55.752;37.884;2023-02-16T11:47:07;99756.13;;;30.04;20.83
54816;BME280;40715;55.752;37.884;2023-02-16T11:49:37;99753.25;;;30.05;20.27
54816;BME280;40715;55.752;37.884;2023-02-16T11:54:52;99749.94;;;30.11;20.22
54816;BME280;40715;55.752;37.884;2023-02-16T11:57:28;99753.66;;;30.10;21.28
54816;BME280;40715;55.752;37.884;2023-02-16T11:59:58;99751.16;;;30.17;20.95
54816;BME280;40715;55.752;37.884;2023-02-16T12:10:37;99736.88;;;30.15;20.29
54816;BME280;40715;55.752;37.884;2023-02-16T12:13:18;99741.47;;;30.15;21.03
54816;BME280;40715;55.752;37.884;2023-02-16T12:21:45;99748.38;;;30.09;21.36
54816;BME280;40715;55.752;37.884;2023-02-16T12:26:49;99743.19;;;29.98;21.00
54816;BME280;40715;55.752;37.884;2023-02-16T12:35:22;99751.78;;;30.11;21.18
54816;BME280;40715;55.752;37.884;2023-02-16T12:43:43;99742.44;;;29.87;20.42
54816;BME280;40715;55.752;37.884;2023-02-16T12:51:40;99753.09;;;29.71;20.88
54816;BME280;40715;55.752;37.884;2023-02-16T12:57:03;99752.63;;;29.75;20.41
54816;BME280;40715;55.752;37.884;2023-02-16T12:59:49;99750.09;;;29.92;20.40
54816;BME280;40715;55.752;37.884;2023-02-16T13:02:25;99752.75;;;29.84;19.90
54816;BME280;40715;55.752;37.884;2023-02-16T13:05:10;99751.25;;;30.07;20.36
54816;BME280;40715;55.752;37.884;2023-02-16T13:07:44;99757.47;;;30.00;20.14
54816;BME280;40715;55.752;37.884;2023-02-16T13:13:20;99750.06;;;30.10;20.05
54816;BME280;40715;55.752;37.884;2023-02-16T13:16:04;99751.78;;;30.11;20.15
54816;BME280;40715;55.752;37.884;2023-02-16T13:18:43;99752.41;;;30.05;19.05
54816;BME280;40715;55.752;37.884;2023-02-16T13:44:45;99747.00;;;29.87;20.27
54816;BME280;40715;55.752;37.884;2023-02-16T13:47:17;99749.53;;;29.70;20.34
54816;BME280;40715;55.752;37.884;2023-02-16T13:49:47;99757.97;;;29.67;19.49
54816;BME280;40715;55.752;37.884;2023-02-16T13:54:52;99753.16;;;29.61;19.96
54816;BME280;40715;55.752;37.884;2023-02-16T14:00:33;99748.22;;;29.56;19.30
54816;BME280;40715;55.752;37.884;2023-02-16T14:05:33;99740.34;;;29.35;19.97
54816;BME280;40715;55.752;37.884;2023-02-16T14:08:30;99753.41;;;29.68;18.84
54816;BME280;40715;55.752;37.884;2023-02-16T14:11:03;99749.44;;;29.44;18.53
54816;BME280;40715;55.752;37.884;2023-02-16T14:16:09;99750.69;;;29.50;19.88
54816;BME280;40715;55.752;37.884;2023-02-16T14:19:16;99753.56;;;29.66;19.17
54816;BME280;40715;55.752;37.884;2023-02-16T14:21:45;99755.56;;;29.64;19.09
54816;BME280;40715;55.752;37.884;2023-02-16T14:26:56;99759.84;;;29.67;18.51
54816;BME280;40715;55.752;37.884;2023-02-16T14:34:51;99766.28;;;29.66;18.12
54816;BME280;40715;55.752;37.884;2023-02-16T14:37:27;99762.41;;;29.68;18.17
54816;BME280;40715;55.752;37.884;2023-02-16T14:40:13;99762.56;;;29.67;18.00
54816;BME280;40715;55.752;37.884;2023-02-16T14:42:51;99755.97;;;29.69;18.64
54816;BME280;40715;55.752;37.884;2023-02-16T14:45:48;99766.34;;;29.74;18.89
54816;BME280;40715;55.752;37.884;2023-02-16T14:56:59;99761.16;;;29.63;19.05
54816;BME280;40715;55.752;37.884;2023-02-16T14:59:36;99771.69;;;29.48;19.29
54816;BME280;40715;55.752;37.884;2023-02-16T15:02:31;99771.53;;;29.49;19.48
54816;BME280;40715;55.752;37.884;2023-02-16T15:05:20;99770.09;;;29.55;19.80
54816;BME280;40715;55.752;37.884;2023-02-16T15:07:52;99777.94;;;29.30;19.49
54816;BME280;40715;55.752;37.884;2023-02-16T15:10:25;99775.00;;;29.23;19.51
54816;BME280;40715;55.752;37.884;2023-02-16T15:12:56;99773.53;;;29.19;19.69
54816;BME280;40715;55.752;37.884;2023-02-16T15:15:46;99762.22;;;29.34;19.46
54816;BME280;40715;55.752;37.884;2023-02-16T15:18:30;99765.78;;;29.34;19.52
54816;BME280;40715;55.752;37.884;2023-02-16T15:20:58;99764.94;;;29.34;19.89
54816;BME280;40715;55.752;37.884;2023-02-16T15:23:28;99770.19;;;29.35;20.02
54816;BME280;40715;55.752;37.884;2023-02-16T15:26:01;99764.31;;;29.40;19.61
54816;BME280;40715;55.752;37.884;2023-02-16T15:28:34;99761.16;;;29.44;19.08
54816;BME280;40715;55.752;37.884;2023-02-16T15:31:07;99773.78;;;29.54;19.59
54816;BME280;40715;55.752;37.884;2023-02-16T15:33:39;99776.03;;;29.58;19.43
54816;BME280;40715;55.752;37.884;2023-02-16T15:36:11;99772.31;;;29.59;18.32
54816;BME280;40715;55.752;37.884;2023-02-16T15:39:04;99779.16;;;29.64;19.15
54816;BME280;40715;55.752;37.884;2023-02-16T15:43:58;99788.16;;;29.64;19.56